sensor_id;sensor_type;location;lat;lon;timestamp;temperature;humidity
76203;DHT22;64985;46.364;17.008;2023-08-30T00:01:19;14.60;99.90
76203;DHT22;64985;46.364;17.008;2023-08-30T00:04:21;14.60;99.90
76203;DHT22;64985;46.364;17.008;2023-08-30T00:07:24;14.60;99.90
76203;DHT22;64985;46.364;17.008;2023-08-30T00:10:26;14.60;99.90
76203;DHT22;64985;46.364;17.008;2023-08-30T00:13:31;14.60;99.90
76203;DHT22;64985;46.364;17.008;2023-08-30T00:16:37;14.60;99.90
76203;DHT22;64985;46.364;17.008;2023-08-30T00:19:40;14.60;99.90
76203;DHT22;64985;46.364;17.008;2023-08-30T00:22:42;14.60;99.90
76203;DHT22;64985;46.364;17.008;2023-08-30T00:25:44;14.60;99.90
76203;DHT22;64985;46.364;17.008;2023-08-30T00:28:46;14.60;99.90
76203;DHT22;64985;46.364;17.008;2023-08-30T00:31:49;14.60;99.90
76203;DHT22;64985;46.364;17.008;2023-08-30T00:34:51;14.60;99.90
76203;DHT22;64985;46.364;17.008;2023-08-30T00:37:53;14.60;99.90
76203;DHT22;64985;46.364;17.008;2023-08-30T00:40:55;14.60;99.90
76203;DHT22;64985;46.364;17.008;2023-08-30T00:43:57;14.60;99.90
76203;DHT22;64985;46.364;17.008;2023-08-30T00:47:03;14.50;99.90
76203;DHT22;64985;46.364;17.008;2023-08-30T00:50:06;14.50;99.90
76203;DHT22;64985;46.364;17.008;2023-08-30T00:53:09;14.50;99.90
76203;DHT22;64985;46.364;17.008;2023-08-30T00:56:12;14.40;99.90
76203;DHT22;64985;46.364;17.008;2023-08-30T00:59:14;14.50;99.90
76203;DHT22;64985;46.364;17.008;2023-08-30T01:02:20;14.40;99.90
76203;DHT22;64985;46.364;17.008;2023-08-30T01:05:22;14.40;99.90
76203;DHT22;64985;46.364;17.008;2023-08-30T01:08:24;14.40;99.90
76203;DHT22;64985;46.364;17.008;2023-08-30T01:17:59;14.30;99.90
76203;DHT22;64985;46.364;17.008;2023-08-30T01:21:02;14.20;99.90
76203;DHT22;64985;46.364;17.008;2023-08-30T01:24:08;14.20;99.90
76203;DHT22;64985;46.364;17.008;2023-08-30T01:27:12;14.20;99.90
76203;DHT22;64985;46.364;17.008;2023-08-30T01:30:15;14.20;99.90
76203;DHT22;64985;46.364;17.008;2023-08-30T01:33:18;14.20;99.90
76203;DHT22;64985;46.364;17.008;2023-08-30T01:36:21;14.20;99.90
76203;DHT22;64985;46.364;17.008;2023-08-30T01:39:23;14.20;99.90
76203;DHT22;64985;46.364;17.008;2023-08-30T01:42:26;14.20;99.90
76203;DHT22;64985;46.364;17.008;2023-08-30T01:45:29;14.20;99.90
76203;DHT22;64985;46.364;17.008;2023-08-30T01:48:32;14.20;99.90
76203;DHT22;64985;46.364;17.008;2023-08-30T01:51:36;14.20;99.90
76203;DHT22;64985;46.364;17.008;2023-08-30T01:54:39;14.10;99.90
76203;DHT22;64985;46.364;17.008;2023-08-30T01:57:43;14.20;99.90
76203;DHT22;64985;46.364;17.008;2023-08-30T02:00:45;14.20;99.90
76203;DHT22;64985;46.364;17.008;2023-08-30T02:03:47;14.20;99.90
76203;DHT22;64985;46.364;17.008;2023-08-30T02:06:57;14.20;99.90
76203;DHT22;64985;46.364;17.008;2023-08-30T02:10:05;14.20;99.90
76203;DHT22;64985;46.364;17.008;2023-08-30T02:13:11;14.20;99.90
76203;DHT22;64985;46.364;17.008;2023-08-30T02:16:14;14.20;99.90
76203;DHT22;64985;46.364;17.008;2023-08-30T02:19:18;14.20;99.90
76203;DHT22;64985;46.364;17.008;2023-08-30T02:22:22;14.30;99.90
76203;DHT22;64985;46.364;17.008;2023-08-30T02:25:24;14.30;99.90
76203;DHT22;64985;46.364;17.008;2023-08-30T02:28:26;14.20;99.90
76203;DHT22;64985;46.364;17.008;2023-08-30T02:31:29;14.30;99.90
76203;DHT22;64985;46.364;17.008;2023-08-30T02:34:31;14.30;99.90
76203;DHT22;64985;46.364;17.008;2023-08-30T02:37:33;14.30;99.90
76203;DHT22;64985;46.364;17.008;2023-08-30T02:40:35;14.30;99.90
76203;DHT22;64985;46.364;17.008;2023-08-30T02:43:37;14.30;99.90
76203;DHT22;64985;46.364;17.008;2023-08-30T02:46:39;14.30;99.90
76203;DHT22;64985;46.364;17.008;2023-08-30T02:49:43;14.30;99.90
76203;DHT22;64985;46.364;17.008;2023-08-30T02:52:45;14.30;99.90
76203;DHT22;64985;46.364;17.008;2023-08-30T02:55:47;14.30;99.90
76203;DHT22;64985;46.364;17.008;2023-08-30T02:58:50;14.30;99.90
76203;DHT22;64985;46.364;17.008;2023-08-30T03:01:52;14.30;99.90
76203;DHT22;64985;46.364;17.008;2023-08-30T03:04:54;14.30;99.90
76203;DHT22;64985;46.364;17.008;2023-08-30T03:07:57;14.40;99.90
76203;DHT22;64985;46.364;17.008;2023-08-30T03:11:12;14.40;99.90
76203;DHT22;64985;46.364;17.008;2023-08-30T03:14:14;14.40;99.90
76203;DHT22;64985;46.364;17.008;2023-08-30T03:17:18;14.40;99.90
76203;DHT22;64985;46.364;17.008;2023-08-30T03:20:20;14.40;99.90
76203;DHT22;64985;46.364;17.008;2023-08-30T03:23:22;14.40;99.90
76203;DHT22;64985;46.364;17.008;2023-08-30T03:26:25;14.40;99.90
76203;DHT22;64985;46.364;17.008;2023-08-30T03:29:29;14.40;99.90
76203;DHT22;64985;46.364;17.008;2023-08-30T03:32:31;14.40;99.90
76203;DHT22;64985;46.364;17.008;2023-08-30T03:35:34;14.40;99.90
76203;DHT22;64985;46.364;17.008;2023-08-30T03:38:37;14.40;99.90
76203;DHT22;64985;46.364;17.008;2023-08-30T03:41:39;14.40;99.90
76203;DHT22;64985;46.364;17.008;2023-08-30T03:44:42;14.40;99.90
76203;DHT22;64985;46.364;17.008;2023-08-30T03:47:44;14.40;99.90
76203;DHT22;64985;46.364;17.008;2023-08-30T03:50:46;14.40;99.90
76203;DHT22;64985;46.364;17.008;2023-08-30T03:53:48;14.40;99.90
76203;DHT22;64985;46.364;17.008;2023-08-30T03:56:50;14.40;99.90
76203;DHT22;64985;46.364;17.008;2023-08-30T03:59:52;14.30;99.90
76203;DHT22;64985;46.364;17.008;2023-08-30T04:02:55;14.40;99.90
76203;DHT22;64985;46.364;17.008;2023-08-30T04:05:57;14.40;99.90
76203;DHT22;64985;46.364;17.008;2023-08-30T04:08:59;14.40;99.90
76203;DHT22;64985;46.364;17.008;2023-08-30T04:12:02;14.40;99.90
76203;DHT22;64985;46.364;17.008;2023-08-30T04:15:06;14.40;99.90
76203;DHT22;64985;46.364;17.008;2023-08-30T04:18:09;14.40;99.90
76203;DHT22;64985;46.364;17.008;2023-08-30T04:21:11;14.40;99.90
76203;DHT22;64985;46.364;17.008;2023-08-30T04:24:14;14.40;99.90
76203;DHT22;64985;46.364;17.008;2023-08-30T04:27:16;14.50;99.90
76203;DHT22;64985;46.364;17.008;2023-08-30T04:30:18;14.50;99.90
76203;DHT22;64985;46.364;17.008;2023-08-30T04:33:21;14.40;99.90
76203;DHT22;64985;46.364;17.008;2023-08-30T04:36:23;14.50;99.90
76203;DHT22;64985;46.364;17.008;2023-08-30T04:39:25;14.50;99.90
76203;DHT22;64985;46.364;17.008;2023-08-30T04:42:27;14.50;99.90
76203;DHT22;64985;46.364;17.008;2023-08-30T04:45:29;14.50;99.90
76203;DHT22;64985;46.364;17.008;2023-08-30T04:48:32;14.50;99.90
76203;DHT22;64985;46.364;17.008;2023-08-30T04:51:34;14.50;99.90
76203;DHT22;64985;46.364;17.008;2023-08-30T04:54:36;14.50;99.90
76203;DHT22;64985;46.364;17.008;2023-08-30T04:57:38;14.60;99.90
76203;DHT22;64985;46.364;17.008;2023-08-30T05:00:40;14.60;99.90
76203;DHT22;64985;46.364;17.008;2023-08-30T05:03:42;14.60;99.90
76203;DHT22;64985;46.364;17.008;2023-08-30T05:06:44;14.60;99.90
76203;DHT22;64985;46.364;17.008;2023-08-30T05:09:47;14.70;99.90
76203;DHT22;64985;46.364;17.008;2023-08-30T05:12:49;14.70;99.90
76203;DHT22;64985;46.364;17.008;2023-08-30T05:15:54;14.80;99.90
76203;DHT22;64985;46.364;17.008;2023-08-30T05:18:56;14.80;99.90
76203;DHT22;64985;46.364;17.008;2023-08-30T05:21:58;14.80;99.90
76203;DHT22;64985;46.364;17.008;2023-08-30T05:25:00;14.80;99.90
76203;DHT22;64985;46.364;17.008;2023-08-30T05:28:03;14.80;99.90
76203;DHT22;64985;46.364;17.008;2023-08-30T05:31:06;14.80;99.90
76203;DHT22;64985;46.364;17.008;2023-08-30T05:34:08;14.90;99.90
76203;DHT22;64985;46.364;17.008;2023-08-30T05:37:10;14.90;99.90
76203;DHT22;64985;46.364;17.008;2023-08-30T05:40:13;15.00;99.90
76203;DHT22;64985;46.364;17.008;2023-08-30T05:43:19;15.00;99.90
76203;DHT22;64985;46.364;17.008;2023-08-30T05:46:21;14.90;99.90
76203;DHT22;64985;46.364;17.008;2023-08-30T05:49:23;15.00;99.90
76203;DHT22;64985;46.364;17.008;2023-08-30T05:52:25;15.00;99.90
76203;DHT22;64985;46.364;17.008;2023-08-30T05:55:27;15.00;99.90
76203;DHT22;64985;46.364;17.008;2023-08-30T05:58:29;15.10;99.90
76203;DHT22;64985;46.364;17.008;2023-08-30T06:01:31;15.10;99.90
76203;DHT22;64985;46.364;17.008;2023-08-30T06:04:34;15.10;99.90
76203;DHT22;64985;46.364;17.008;2023-08-30T06:07:36;15.10;99.90
76203;DHT22;64985;46.364;17.008;2023-08-30T06:10:38;15.20;99.90
76203;DHT22;64985;46.364;17.008;2023-08-30T06:13:40;15.20;99.90
76203;DHT22;64985;46.364;17.008;2023-08-30T06:16:43;15.30;99.90
76203;DHT22;64985;46.364;17.008;2023-08-30T06:19:46;15.40;99.90
76203;DHT22;64985;46.364;17.008;2023-08-30T06:22:48;15.40;99.90
76203;DHT22;64985;46.364;17.008;2023-08-30T06:25:54;15.60;99.90
76203;DHT22;64985;46.364;17.008;2023-08-30T06:28:56;15.70;99.90
76203;DHT22;64985;46.364;17.008;2023-08-30T06:32:07;15.80;99.90
76203;DHT22;64985;46.364;17.008;2023-08-30T06:35:10;15.80;99.90
76203;DHT22;64985;46.364;17.008;2023-08-30T06:38:12;15.90;99.90
76203;DHT22;64985;46.364;17.008;2023-08-30T06:41:15;16.00;99.90
76203;DHT22;64985;46.364;17.008;2023-08-30T06:44:18;16.10;99.90
76203;DHT22;64985;46.364;17.008;2023-08-30T06:47:22;16.40;99.90
76203;DHT22;64985;46.364;17.008;2023-08-30T06:50:25;16.80;99.90
76203;DHT22;64985;46.364;17.008;2023-08-30T06:53:28;17.00;99.90
76203;DHT22;64985;46.364;17.008;2023-08-30T06:56:30;17.10;99.90
76203;DHT22;64985;46.364;17.008;2023-08-30T06:59:34;17.10;99.90
76203;DHT22;64985;46.364;17.008;2023-08-30T07:02:42;17.20;99.90
76203;DHT22;64985;46.364;17.008;2023-08-30T07:05:48;17.40;99.90
76203;DHT22;64985;46.364;17.008;2023-08-30T07:08:52;17.50;99.90
76203;DHT22;64985;46.364;17.008;2023-08-30T07:11:56;17.50;99.90
76203;DHT22;64985;46.364;17.008;2023-08-30T07:14:58;17.60;99.90
76203;DHT22;64985;46.364;17.008;2023-08-30T07:18:00;17.80;99.90
76203;DHT22;64985;46.364;17.008;2023-08-30T07:21:03;18.00;99.90
76203;DHT22;64985;46.364;17.008;2023-08-30T07:24:07;18.10;99.90
76203;DHT22;64985;46.364;17.008;2023-08-30T07:27:11;17.90;99.90
76203;DHT22;64985;46.364;17.008;2023-08-30T07:30:15;17.90;99.90
76203;DHT22;64985;46.364;17.008;2023-08-30T07:33:19;17.90;99.90
76203;DHT22;64985;46.364;17.008;2023-08-30T07:36:21;17.90;99.90
76203;DHT22;64985;46.364;17.008;2023-08-30T07:39:39;18.00;99.90
76203;DHT22;64985;46.364;17.008;2023-08-30T07:42:42;18.20;99.90
76203;DHT22;64985;46.364;17.008;2023-08-30T07:45:45;18.40;99.90
76203;DHT22;64985;46.364;17.008;2023-08-30T07:48:48;18.60;99.90
76203;DHT22;64985;46.364;17.008;2023-08-30T07:51:51;19.00;99.90
76203;DHT22;64985;46.364;17.008;2023-08-30T07:54:56;19.40;98.30
76203;DHT22;64985;46.364;17.008;2023-08-30T07:57:58;19.40;96.50
76203;DHT22;64985;46.364;17.008;2023-08-30T08:01:00;19.40;97.10
76203;DHT22;64985;46.364;17.008;2023-08-30T08:04:03;19.60;97.80
76203;DHT22;64985;46.364;17.008;2023-08-30T08:07:08;20.00;95.10
76203;DHT22;64985;46.364;17.008;2023-08-30T08:10:10;20.40;94.40
76203;DHT22;64985;46.364;17.008;2023-08-30T08:13:13;20.70;91.20
76203;DHT22;64985;46.364;17.008;2023-08-30T08:16:15;21.20;89.60
76203;DHT22;64985;46.364;17.008;2023-08-30T08:19:18;21.20;89.00
76203;DHT22;64985;46.364;17.008;2023-08-30T08:22:26;21.00;91.20
76203;DHT22;64985;46.364;17.008;2023-08-30T08:25:28;21.00;89.00
76203;DHT22;64985;46.364;17.008;2023-08-30T08:28:30;21.20;95.00
76203;DHT22;64985;46.364;17.008;2023-08-30T08:31:33;21.70;90.10
76203;DHT22;64985;46.364;17.008;2023-08-30T08:34:35;21.80;91.60
76203;DHT22;64985;46.364;17.008;2023-08-30T08:37:37;21.40;85.00
76203;DHT22;64985;46.364;17.008;2023-08-30T08:40:39;21.10;87.80
76203;DHT22;64985;46.364;17.008;2023-08-30T08:43:44;21.00;88.80
76203;DHT22;64985;46.364;17.008;2023-08-30T08:46:47;20.90;89.90
76203;DHT22;64985;46.364;17.008;2023-08-30T08:49:50;20.90;90.30
76203;DHT22;64985;46.364;17.008;2023-08-30T08:52:53;20.90;90.80
76203;DHT22;64985;46.364;17.008;2023-08-30T08:56:02;20.40;90.40
76203;DHT22;64985;46.364;17.008;2023-08-30T08:59:05;19.90;91.40
76203;DHT22;64985;46.364;17.008;2023-08-30T09:02:12;19.80;91.90
76203;DHT22;64985;46.364;17.008;2023-08-30T09:05:15;19.70;94.20
76203;DHT22;64985;46.364;17.008;2023-08-30T09:08:17;19.80;95.80
76203;DHT22;64985;46.364;17.008;2023-08-30T09:11:19;20.00;95.80
76203;DHT22;64985;46.364;17.008;2023-08-30T09:14:26;20.00;94.00
76203;DHT22;64985;46.364;17.008;2023-08-30T09:17:38;19.90;91.40
76203;DHT22;64985;46.364;17.008;2023-08-30T09:20:41;19.80;91.40
76203;DHT22;64985;46.364;17.008;2023-08-30T09:23:43;20.00;93.20
76203;DHT22;64985;46.364;17.008;2023-08-30T09:26:52;20.20;91.70
76203;DHT22;64985;46.364;17.008;2023-08-30T09:29:58;20.70;91.00
76203;DHT22;64985;46.364;17.008;2023-08-30T09:33:03;21.20;87.30
76203;DHT22;64985;46.364;17.008;2023-08-30T09:36:10;21.60;90.10
76203;DHT22;64985;46.364;17.008;2023-08-30T09:39:13;22.00;85.40
76203;DHT22;64985;46.364;17.008;2023-08-30T09:42:19;22.20;81.70
76203;DHT22;64985;46.364;17.008;2023-08-30T09:45:24;22.20;80.20
76203;DHT22;64985;46.364;17.008;2023-08-30T09:48:30;22.20;78.20
76203;DHT22;64985;46.364;17.008;2023-08-30T09:51:35;22.60;78.80
76203;DHT22;64985;46.364;17.008;2023-08-30T09:54:39;22.90;81.00
76203;DHT22;64985;46.364;17.008;2023-08-30T09:57:44;23.90;80.40
76203;DHT22;64985;46.364;17.008;2023-08-30T10:00:46;24.00;76.60
76203;DHT22;64985;46.364;17.008;2023-08-30T10:03:49;23.90;80.50
76203;DHT22;64985;46.364;17.008;2023-08-30T10:06:51;23.80;75.60
76203;DHT22;64985;46.364;17.008;2023-08-30T10:09:56;23.70;75.00
76203;DHT22;64985;46.364;17.008;2023-08-30T10:13:11;23.20;75.20
76203;DHT22;64985;46.364;17.008;2023-08-30T10:16:19;23.00;75.50
76203;DHT22;64985;46.364;17.008;2023-08-30T10:19:26;22.90;84.10
76203;DHT22;64985;46.364;17.008;2023-08-30T10:22:29;22.80;74.50
76203;DHT22;64985;46.364;17.008;2023-08-30T10:25:33;22.20;76.30
76203;DHT22;64985;46.364;17.008;2023-08-30T10:28:36;22.00;80.90
76203;DHT22;64985;46.364;17.008;2023-08-30T10:31:40;21.80;80.40
76203;DHT22;64985;46.364;17.008;2023-08-30T10:34:48;21.60;81.60
76203;DHT22;64985;46.364;17.008;2023-08-30T10:37:59;21.60;82.00
76203;DHT22;64985;46.364;17.008;2023-08-30T10:41:08;21.50;81.00
76203;DHT22;64985;46.364;17.008;2023-08-30T10:44:14;21.80;82.30
76203;DHT22;64985;46.364;17.008;2023-08-30T10:47:29;22.10;82.20
76203;DHT22;64985;46.364;17.008;2023-08-30T10:50:34;22.30;82.30
76203;DHT22;64985;46.364;17.008;2023-08-30T10:53:36;22.00;80.60
76203;DHT22;64985;46.364;17.008;2023-08-30T10:56:57;22.40;81.00
76203;DHT22;64985;46.364;17.008;2023-08-30T11:00:20;22.70;75.50
76203;DHT22;64985;46.364;17.008;2023-08-30T11:03:23;22.60;77.00
76203;DHT22;64985;46.364;17.008;2023-08-30T11:06:26;22.70;77.20
76203;DHT22;64985;46.364;17.008;2023-08-30T11:09:28;23.00;81.60
76203;DHT22;64985;46.364;17.008;2023-08-30T11:12:30;23.50;75.20
76203;DHT22;64985;46.364;17.008;2023-08-30T11:15:32;23.80;81.50
76203;DHT22;64985;46.364;17.008;2023-08-30T11:18:37;24.80;78.00
76203;DHT22;64985;46.364;17.008;2023-08-30T11:21:45;25.00;70.30
76203;DHT22;64985;46.364;17.008;2023-08-30T11:24:48;25.40;73.30
76203;DHT22;64985;46.364;17.008;2023-08-30T11:28:04;25.50;69.40
76203;DHT22;64985;46.364;17.008;2023-08-30T11:31:06;25.90;66.40
76203;DHT22;64985;46.364;17.008;2023-08-30T11:34:08;25.80;69.80
76203;DHT22;64985;46.364;17.008;2023-08-30T11:37:10;25.60;69.20
76203;DHT22;64985;46.364;17.008;2023-08-30T11:40:14;25.60;68.40
76203;DHT22;64985;46.364;17.008;2023-08-30T11:43:16;25.00;69.50
76203;DHT22;64985;46.364;17.008;2023-08-30T11:46:19;24.30;68.80
76203;DHT22;64985;46.364;17.008;2023-08-30T11:49:21;24.00;68.90
76203;DHT22;64985;46.364;17.008;2023-08-30T11:52:25;24.40;72.80
76203;DHT22;64985;46.364;17.008;2023-08-30T11:55:27;25.20;72.10
76203;DHT22;64985;46.364;17.008;2023-08-30T11:58:33;25.20;68.10
76203;DHT22;64985;46.364;17.008;2023-08-30T12:01:35;25.00;72.50
76203;DHT22;64985;46.364;17.008;2023-08-30T12:04:47;24.90;65.90
76203;DHT22;64985;46.364;17.008;2023-08-30T12:07:49;25.20;71.60
76203;DHT22;64985;46.364;17.008;2023-08-30T12:10:55;26.10;67.80
76203;DHT22;64985;46.364;17.008;2023-08-30T12:14:02;27.00;64.70
76203;DHT22;64985;46.364;17.008;2023-08-30T12:17:05;26.90;62.00
76203;DHT22;64985;46.364;17.008;2023-08-30T12:20:15;26.60;62.70
76203;DHT22;64985;46.364;17.008;2023-08-30T12:23:25;26.50;65.50
76203;DHT22;64985;46.364;17.008;2023-08-30T12:26:31;26.30;64.90
76203;DHT22;64985;46.364;17.008;2023-08-30T12:29:35;25.80;67.70
76203;DHT22;64985;46.364;17.008;2023-08-30T12:32:37;25.30;69.60
76203;DHT22;64985;46.364;17.008;2023-08-30T12:35:39;24.60;68.40
76203;DHT22;64985;46.364;17.008;2023-08-30T12:38:41;24.20;69.60
76203;DHT22;64985;46.364;17.008;2023-08-30T12:41:43;24.20;73.20
76203;DHT22;64985;46.364;17.008;2023-08-30T12:44:45;24.30;70.70
76203;DHT22;64985;46.364;17.008;2023-08-30T12:47:48;24.30;70.60
76203;DHT22;64985;46.364;17.008;2023-08-30T12:50:50;24.40;72.10
76203;DHT22;64985;46.364;17.008;2023-08-30T12:53:52;25.00;70.60
76203;DHT22;64985;46.364;17.008;2023-08-30T12:56:54;25.50;66.90
76203;DHT22;64985;46.364;17.008;2023-08-30T12:59:56;25.40;68.70
76203;DHT22;64985;46.364;17.008;2023-08-30T13:02:59;24.40;70.30
76203;DHT22;64985;46.364;17.008;2023-08-30T13:06:01;23.60;73.30
76203;DHT22;64985;46.364;17.008;2023-08-30T13:09:05;23.00;72.30
76203;DHT22;64985;46.364;17.008;2023-08-30T13:12:07;22.80;71.60
76203;DHT22;64985;46.364;17.008;2023-08-30T13:15:10;22.50;73.00
76203;DHT22;64985;46.364;17.008;2023-08-30T13:18:12;22.20;73.20
76203;DHT22;64985;46.364;17.008;2023-08-30T13:21:15;22.30;76.50
76203;DHT22;64985;46.364;17.008;2023-08-30T13:24:22;22.60;76.80
76203;DHT22;64985;46.364;17.008;2023-08-30T13:27:24;22.70;76.40
76203;DHT22;64985;46.364;17.008;2023-08-30T13:30:27;22.90;74.20
76203;DHT22;64985;46.364;17.008;2023-08-30T13:33:29;23.20;75.30
76203;DHT22;64985;46.364;17.008;2023-08-30T13:36:31;23.30;76.40
76203;DHT22;64985;46.364;17.008;2023-08-30T13:39:34;23.50;75.30
76203;DHT22;64985;46.364;17.008;2023-08-30T13:42:36;23.10;73.60
76203;DHT22;64985;46.364;17.008;2023-08-30T13:45:38;23.10;76.50
76203;DHT22;64985;46.364;17.008;2023-08-30T13:48:41;23.00;76.40
76203;DHT22;64985;46.364;17.008;2023-08-30T13:51:44;22.50;74.70
76203;DHT22;64985;46.364;17.008;2023-08-30T13:54:47;22.60;78.80
76203;DHT22;64985;46.364;17.008;2023-08-30T13:57:52;22.90;76.10
76203;DHT22;64985;46.364;17.008;2023-08-30T14:00:55;23.50;76.30
76203;DHT22;64985;46.364;17.008;2023-08-30T14:03:57;24.20;74.00
76203;DHT22;64985;46.364;17.008;2023-08-30T14:07:00;25.60;68.20
76203;DHT22;64985;46.364;17.008;2023-08-30T14:10:02;26.70;65.70
76203;DHT22;64985;46.364;17.008;2023-08-30T14:13:04;26.90;65.10
76203;DHT22;64985;46.364;17.008;2023-08-30T14:16:07;27.40;60.70
76203;DHT22;64985;46.364;17.008;2023-08-30T14:19:12;27.20;62.60
76203;DHT22;64985;46.364;17.008;2023-08-30T14:22:14;27.00;66.00
76203;DHT22;64985;46.364;17.008;2023-08-30T14:25:16;26.30;65.50
76203;DHT22;64985;46.364;17.008;2023-08-30T14:28:19;25.10;67.20
76203;DHT22;64985;46.364;17.008;2023-08-30T14:31:21;24.30;69.50
76203;DHT22;64985;46.364;17.008;2023-08-30T14:34:24;23.80;70.40
76203;DHT22;64985;46.364;17.008;2023-08-30T14:37:26;24.10;71.70
76203;DHT22;64985;46.364;17.008;2023-08-30T14:40:28;24.00;72.60
76203;DHT22;64985;46.364;17.008;2023-08-30T14:43:32;24.00;73.60
76203;DHT22;64985;46.364;17.008;2023-08-30T14:46:34;24.10;72.30
76203;DHT22;64985;46.364;17.008;2023-08-30T14:49:37;23.70;71.10
76203;DHT22;64985;46.364;17.008;2023-08-30T14:52:40;23.50;71.80
76203;DHT22;64985;46.364;17.008;2023-08-30T14:55:46;23.50;71.80
76203;DHT22;64985;46.364;17.008;2023-08-30T14:58:48;23.30;73.90
76203;DHT22;64985;46.364;17.008;2023-08-30T15:01:54;23.30;75.40
76203;DHT22;64985;46.364;17.008;2023-08-30T15:04:57;23.20;72.80
76203;DHT22;64985;46.364;17.008;2023-08-30T15:08:00;23.20;75.50
76203;DHT22;64985;46.364;17.008;2023-08-30T15:11:02;23.30;75.90
76203;DHT22;64985;46.364;17.008;2023-08-30T15:14:06;23.30;73.10
76203;DHT22;64985;46.364;17.008;2023-08-30T15:17:09;23.20;73.50
76203;DHT22;64985;46.364;17.008;2023-08-30T15:20:15;23.20;76.40
76203;DHT22;64985;46.364;17.008;2023-08-30T15:23:17;22.90;74.80
76203;DHT22;64985;46.364;17.008;2023-08-30T15:26:20;22.60;75.10
76203;DHT22;64985;46.364;17.008;2023-08-30T15:29:24;22.40;77.60
76203;DHT22;64985;46.364;17.008;2023-08-30T15:32:26;22.30;77.20
76203;DHT22;64985;46.364;17.008;2023-08-30T15:35:30;22.00;77.10
76203;DHT22;64985;46.364;17.008;2023-08-30T15:38:34;21.90;77.30
76203;DHT22;64985;46.364;17.008;2023-08-30T15:41:38;21.80;82.80
76203;DHT22;64985;46.364;17.008;2023-08-30T15:44:40;21.60;81.60
76203;DHT22;64985;46.364;17.008;2023-08-30T15:47:42;21.40;81.10
76203;DHT22;64985;46.364;17.008;2023-08-30T15:50:45;21.20;82.10
76203;DHT22;64985;46.364;17.008;2023-08-30T15:53:48;21.20;82.80
76203;DHT22;64985;46.364;17.008;2023-08-30T15:56:50;21.10;82.90
76203;DHT22;64985;46.364;17.008;2023-08-30T15:59:52;20.90;85.20
76203;DHT22;64985;46.364;17.008;2023-08-30T16:02:55;20.80;90.40
76203;DHT22;64985;46.364;17.008;2023-08-30T16:06:00;20.80;91.20
76203;DHT22;64985;46.364;17.008;2023-08-30T16:09:03;20.70;90.50
76203;DHT22;64985;46.364;17.008;2023-08-30T16:12:06;20.60;93.50
76203;DHT22;64985;46.364;17.008;2023-08-30T16:15:10;20.60;91.50
76203;DHT22;64985;46.364;17.008;2023-08-30T16:18:14;20.60;92.30
76203;DHT22;64985;46.364;17.008;2023-08-30T16:21:19;20.50;92.30
76203;DHT22;64985;46.364;17.008;2023-08-30T16:24:25;20.40;92.00
76203;DHT22;64985;46.364;17.008;2023-08-30T16:27:31;20.40;92.30
76203;DHT22;64985;46.364;17.008;2023-08-30T16:30:34;20.40;94.40
76203;DHT22;64985;46.364;17.008;2023-08-30T16:33:39;20.40;99.00
76203;DHT22;64985;46.364;17.008;2023-08-30T16:36:51;20.30;95.70
76203;DHT22;64985;46.364;17.008;2023-08-30T16:39:55;20.30;94.90
76203;DHT22;64985;46.364;17.008;2023-08-30T16:43:00;20.30;96.70
76203;DHT22;64985;46.364;17.008;2023-08-30T16:46:03;20.20;97.70
76203;DHT22;64985;46.364;17.008;2023-08-30T16:49:07;20.30;99.90
76203;DHT22;64985;46.364;17.008;2023-08-30T16:52:15;20.20;99.30
76203;DHT22;64985;46.364;17.008;2023-08-30T16:55:19;20.10;99.90
76203;DHT22;64985;46.364;17.008;2023-08-30T16:58:24;20.00;99.60
76203;DHT22;64985;46.364;17.008;2023-08-30T17:01:29;19.90;99.90
76203;DHT22;64985;46.364;17.008;2023-08-30T17:04:33;19.80;98.30
76203;DHT22;64985;46.364;17.008;2023-08-30T17:07:40;19.70;99.90
76203;DHT22;64985;46.364;17.008;2023-08-30T17:10:43;19.60;99.90
76203;DHT22;64985;46.364;17.008;2023-08-30T17:13:49;19.40;99.90
76203;DHT22;64985;46.364;17.008;2023-08-30T17:16:53;19.20;99.90
76203;DHT22;64985;46.364;17.008;2023-08-30T17:19:59;19.10;99.90
76203;DHT22;64985;46.364;17.008;2023-08-30T17:23:03;19.00;99.90
76203;DHT22;64985;46.364;17.008;2023-08-30T17:26:07;18.90;99.90
76203;DHT22;64985;46.364;17.008;2023-08-30T17:29:12;18.70;99.90
76203;DHT22;64985;46.364;17.008;2023-08-30T17:32:18;18.60;99.90
76203;DHT22;64985;46.364;17.008;2023-08-30T17:35:25;18.40;99.90
76203;DHT22;64985;46.364;17.008;2023-08-30T17:38:34;18.30;99.90
76203;DHT22;64985;46.364;17.008;2023-08-30T17:41:44;18.20;99.90
76203;DHT22;64985;46.364;17.008;2023-08-30T17:44:49;18.10;99.90
76203;DHT22;64985;46.364;17.008;2023-08-30T17:48:02;18.00;99.90
76203;DHT22;64985;46.364;17.008;2023-08-30T17:51:07;17.90;99.90
76203;DHT22;64985;46.364;17.008;2023-08-30T17:54:13;17.70;99.90
76203;DHT22;64985;46.364;17.008;2023-08-30T17:57:28;17.60;99.90
76203;DHT22;64985;46.364;17.008;2023-08-30T18:00:33;17.50;99.90
76203;DHT22;64985;46.364;17.008;2023-08-30T18:03:37;17.50;99.90
76203;DHT22;64985;46.364;17.008;2023-08-30T18:06:43;17.40;99.90
76203;DHT22;64985;46.364;17.008;2023-08-30T18:09:52;17.40;99.90
76203;DHT22;64985;46.364;17.008;2023-08-30T18:12:58;17.40;99.90
76203;DHT22;64985;46.364;17.008;2023-08-30T18:16:05;17.40;99.90
76203;DHT22;64985;46.364;17.008;2023-08-30T18:19:10;17.40;99.90
76203;DHT22;64985;46.364;17.008;2023-08-30T18:22:14;17.40;99.90
76203;DHT22;64985;46.364;17.008;2023-08-30T18:25:27;17.30;99.90
76203;DHT22;64985;46.364;17.008;2023-08-30T18:28:32;17.20;99.90
76203;DHT22;64985;46.364;17.008;2023-08-30T18:31:36;17.20;99.90
76203;DHT22;64985;46.364;17.008;2023-08-30T18:34:46;17.30;99.90
76203;DHT22;64985;46.364;17.008;2023-08-30T18:37:51;17.10;99.90
76203;DHT22;64985;46.364;17.008;2023-08-30T18:40:57;17.00;99.90
76203;DHT22;64985;46.364;17.008;2023-08-30T18:44:24;16.90;99.90
76203;DHT22;64985;46.364;17.008;2023-08-30T18:47:28;16.90;99.90
76203;DHT22;64985;46.364;17.008;2023-08-30T18:50:34;16.90;99.90
76203;DHT22;64985;46.364;17.008;2023-08-30T18:53:39;16.80;99.90
76203;DHT22;64985;46.364;17.008;2023-08-30T18:56:45;16.70;99.90
76203;DHT22;64985;46.364;17.008;2023-08-30T18:59:49;16.70;99.90
76203;DHT22;64985;46.364;17.008;2023-08-30T19:02:54;16.80;99.90
76203;DHT22;64985;46.364;17.008;2023-08-30T19:05:59;16.90;99.90
76203;DHT22;64985;46.364;17.008;2023-08-30T19:09:04;16.80;99.90